Map

Track Data

SID SEASON NUMBER BASIN SUBBASIN NAME ISO_TIME NATURE LAT LON WMO_WIND WMO_PRES WMO_AGENCY TRACK_TYPE DIST2LAND LANDFALL IFLAG USA_AGENCY USA_ATCF_ID USA_LAT USA_LON USA_RECORD USA_STATUS USA_WIND USA_PRES USA_SSHS USA_R34_NE USA_R34_SE USA_R34_SW USA_R34_NW USA_R50_NE USA_R50_SE USA_R50_SW USA_R50_NW USA_R64_NE USA_R64_SE USA_R64_SW USA_R64_NW USA_POCI USA_ROCI USA_RMW USA_EYE TOKYO_LAT TOKYO_LON TOKYO_GRADE TOKYO_WIND TOKYO_PRES TOKYO_R50_DIR TOKYO_R50_LONG TOKYO_R50_SHORT TOKYO_R30_DIR TOKYO_R30_LONG TOKYO_R30_SHORT TOKYO_LAND CMA_LAT CMA_LON CMA_CAT CMA_WIND CMA_PRES HKO_LAT HKO_LON HKO_CAT HKO_WIND HKO_PRES NEWDELHI_LAT NEWDELHI_LON NEWDELHI_GRADE NEWDELHI_WIND NEWDELHI_PRES NEWDELHI_CI NEWDELHI_DP NEWDELHI_POCI REUNION_LAT REUNION_LON REUNION_TYPE REUNION_WIND REUNION_PRES REUNION_TNUM REUNION_CI REUNION_RMW REUNION_R34_NE REUNION_R34_SE REUNION_R34_SW REUNION_R34_NW REUNION_R50_NE REUNION_R50_SE REUNION_R50_SW REUNION_R50_NW REUNION_R64_NE REUNION_R64_SE REUNION_R64_SW REUNION_R64_NW BOM_LAT BOM_LON BOM_TYPE BOM_WIND BOM_PRES BOM_TNUM BOM_CI BOM_RMW BOM_R34_NE BOM_R34_SE BOM_R34_SW BOM_R34_NW BOM_R50_NE BOM_R50_SE BOM_R50_SW BOM_R50_NW BOM_R64_NE BOM_R64_SE BOM_R64_SW BOM_R64_NW BOM_ROCI BOM_POCI BOM_EYE BOM_POS_METHOD BOM_PRES_METHOD NADI_LAT NADI_LON NADI_CAT NADI_WIND NADI_PRES WELLINGTON_LAT WELLINGTON_LON WELLINGTON_WIND WELLINGTON_PRES DS824_LAT DS824_LON DS824_STAGE DS824_WIND DS824_PRES TD9636_LAT TD9636_LON TD9636_STAGE TD9636_WIND TD9636_PRES TD9635_LAT TD9635_LON TD9635_WIND TD9635_PRES TD9635_ROCI NEUMANN_LAT NEUMANN_LON NEUMANN_CLASS NEUMANN_WIND NEUMANN_PRES MLC_LAT MLC_LON MLC_CLASS MLC_WIND MLC_PRES USA_GUST BOM_GUST BOM_GUST_PER REUNION_GUST REUNION_GUST_PER USA_SEAHGT USA_SEARAD_NE USA_SEARAD_SE USA_SEARAD_SW USA_SEARAD_NW STORM_SPEED STORM_DIR
1991124S08154 1991 23 SP EA LISA 1991-05-04 00:00:00 TS -8.40000 154.000 main 243 235 ____________O_ -1 -8.40000 154.000 TC 15 5 338
1991124S08154 1991 23 SP EA LISA 1991-05-04 03:00:00 TS -8.17750 153.907 main 235 228 ____________P_ -1 -8.17750 153.907 TC 15 4 334
1991124S08154 1991 23 SP EA LISA 1991-05-04 06:00:00 TS -8.00000 153.800 main 228 228 ____________O_ -1 -8.00000 153.800 TC 15 4 320
1991124S08154 1991 23 SP EA LISA 1991-05-04 09:00:00 TS -7.89249 153.665 main 228 228 ____________P_ -1 -7.89249 153.665 TC 15 4 304
1991124S08154 1991 23 SP EA LISA 1991-05-04 12:00:00 TS -7.80000 153.500 main 237 237 ____________O_ -1 -7.80000 153.500 TC 15 4 304
1991124S08154 1991 23 SP EA LISA 1991-05-04 15:00:00 TS -7.65750 153.308 main 249 243 ____________P_ -1 -7.65750 153.308 TC 15 5 307
1991124S08154 1991 23 SP EA LISA 1991-05-04 18:00:00 TS -7.50000 153.100 main 251 235 ____________O_ -1 -7.50000 153.100 TC 15 5 307
1991124S08154 1991 23 SP EA LISA 1991-05-04 21:00:00 TS -7.34999 152.900 main 226 205 ____________P_ -1 -7.34999 152.900 TC 17 5 307
1991124S08154 1991 23 SP EA LISA 1991-05-05 00:00:00 TS -7.20000 152.700 main 205 185 ____________O_ -1 -7.20000 152.700 TC 20 5 305
1991124S08154 1991 23 SP EA LISA 1991-05-05 03:00:00 TS -7.05751 152.478 main 185 155 ____________P_ -1 -7.05751 152.478 TC 20 5 307
1991124S08154 1991 23 SP EA LISA 1991-05-05 06:00:00 TS -6.90000 152.300 main 155 130 ____________O_ -1 -6.90000 152.300 TC 20 4 324
1991124S08154 1991 23 SP EA LISA 1991-05-05 09:00:00 TS -6.69999 152.213 main 130 110 ____________P_ -1 -6.69999 152.213 TC 20 4 347
1991124S08154 1991 23 SP EA LISA 1991-05-05 12:00:00 TS -6.50000 152.200 main 110 90 ____________O_ -1 -6.50000 152.200 TC 20 4 4
1991124S08154 1991 23 SP EA LISA 1991-05-05 15:00:00 TS -6.32749 152.220 main 90 87 ____________P_ -1 -6.32749 152.220 TC 20 3 17
1991124S08154 1991 23 SP EA LISA 1991-05-05 18:00:00 TS -6.20000 152.300 main 87 85 ____________O_ -1 -6.20000 152.300 TC 20 3 47
1991124S08154 1991 23 SP EA LISA 1991-05-05 21:00:00 TS -6.13500 152.428 main 85 85 ____________P_ -1 -6.13500 152.428 TC 20 3 71
1991124S08154 1991 23 SP EA LISA 1991-05-06 00:00:00 TS -6.10000 152.600 main 96 94 ____________O_ -1 -6.10000 152.600 TC 20 4 74
1991124S08154 1991 23 SP EA LISA 1991-05-06 03:00:00 TS -6.03498 152.778 main 102 102 ____________P_ -1 -6.03498 152.778 TC 22 4 76
1991124S08154 1991 23 SP EA LISA 1991-05-06 06:00:00 TS -6.00000 153.000 main 120 120 ____________O_ -1 -6.00000 153.000 TC 25 5 89
1991124S08154 1991 23 SP EA LISA 1991-05-06 09:00:00 TS -6.02751 153.285 main 130 123 ____________P_ -1 -6.02751 153.285 TC 25 6 100
1991124S08154 1991 23 SP EA LISA 1991-05-06 12:00:00 TS -6.10000 153.600 main 123 94 ____________O_ -1 -6.10000 153.600 TC 25 6 103
1991124S08154 1991 23 SP EA LISA 1991-05-06 15:00:00 TS -6.17000 153.908 main 94 71 ____________P_ -1 -6.17000 153.908 TC 25 6 109
1991124S08154 1991 23 SP EA LISA 1991-05-06 18:00:00 TS -6.30000 154.200 main 71 62 ____________O_ -1 -6.30000 154.200 TC 25 7 121
1991124S08154 1991 23 SP EA LISA 1991-05-06 21:00:00 TS -6.51250 154.472 main 62 45 ____________P_ -1 -6.51250 154.472 TC 25 6 115
1991124S08154 1991 23 SP EA LISA 1991-05-07 00:00:00 TS -6.57143 154.786 30 1004 bom main 45 40 O_____O_O___O_ jtwc_sh SH211991 -6.80000 154.700 -1 -6.00000 155.000 20 30 1004 2.50000 269 3 6 -6.00000 155.000 25 1004 -6.80000 154.700 TC 25 45 45 6 129
1991124S08154 1991 23 SP EA LISA 1991-05-07 03:00:00 TS -6.87322 154.925 main 55 55 P_____P_P___P_ SH211991 -7.21095 154.843 -1 -6.49750 154.978 20 30 1002 269 -6.40266 155.029 25 1002 -7.12749 154.887 TC 25 7 162
1991124S08154 1991 23 SP EA LISA 1991-05-07 06:00:00 TS -7.24888 155.006 30 1000 bom main 71 71 P_____O_P___O_ SH211991 -7.61751 154.959 -1 -7.00000 155.000 20 30 1000 2.50000 269 3 6 -6.79429 155.066 25 1001 -7.50000 155.000 TC 25 45 45 8 170
1991124S08154 1991 23 SP EA LISA 1991-05-07 09:00:00 TS -7.64664 155.068 main 99 99 P_____P_P___P_ SH211991 -8.01530 155.021 -1 -7.50751 155.092 20 32 999 255 -7.16376 155.120 25 1000 -7.89999 155.038 TC 27 8 173
1991124S08154 1991 23 SP EA LISA 1991-05-07 12:00:00 TS -8.05000 155.100 35 998 bom main 139 149 O_____O_O___O_ jtwc_sh SH211991 -8.40000 155.000 XX 30 -5 -8.00000 155.200 30 35 998 2.50000 242 3 6 -7.50000 155.200 25 999 -8.30000 155.000 TC 30 49 49 8 177
1991124S08154 1991 23 SP EA LISA 1991-05-07 15:00:00 TS -8.42162 155.100 main 180 180 P_____P_P___P_ SH211991 -8.76851 154.881 XX 32 -5 -8.45749 155.287 30 35 997 242 -7.80298 155.303 27 998 -8.65749 154.930 TC 32 7 184
1991124S08154 1991 23 SP EA LISA 1991-05-07 18:00:00 TS -8.78491 155.046 35 996 bom main 226 226 P_____O_P___O_ SH211991 -9.12263 154.695 XX 35 -5 -8.90000 155.300 30 35 996 2.50000 242 3 6 -8.11701 155.389 30 997 -9.00000 154.800 TC 35 49 49 8 193
1991124S08154 1991 23 SP EA LISA 1991-05-07 21:00:00 TS -9.17136 154.926 main 272 272 P_____P_P___P_ SH211991 -9.46542 154.487 XX 37 -5 -9.37247 155.203 30 37 995 242 -8.49752 155.405 32 996 -9.35002 154.608 TC 35 8 200
1991124S08154 1991 23 SP EA LISA 1991-05-08 00:00:00 TS -9.57500 154.750 40 995 bom main 301 301 O_____O_O___O_ jtwc_sh SH211991 -9.80000 154.300 XX 40 -5 -9.80000 155.000 30 40 995 2.50000 242 3 6 -9.00000 155.300 35 995 -9.70000 154.400 TC 35 55 55 9 205
1991124S08154 1991 23 SP EA LISA 1991-05-08 03:00:00 TS -10.0075 154.532 main 352 352 P_____P_P___P_ SH211991 -10.1321 154.176 XX 41 -5 -10.1226 154.708 30 37 995 242 -9.72537 155.008 35 995 -10.0500 154.235 TC 37 9 207
1991124S08154 1991 23 SP EA LISA 1991-05-08 06:00:00 TS -10.4144 154.321 35 995 bom main 394 382 P_____O_O___O_ SH211991 -10.4574 154.083 XX 42 -5 -10.4000 154.400 30 35 995 2.50000 242 3 6 -10.4000 154.700 35 995 -10.4000 154.100 TC 40 49 49 8 205
1991124S08154 1991 23 SP EA LISA 1991-05-08 09:00:00 TS -10.7466 154.174 main 382 372 P_____P_P___P_ SH211991 -10.7790 154.023 XX 43 -5 -10.6700 154.162 30 40 992 228 -10.7874 154.542 37 992 -10.7500 153.970 TC 42 7 200
1991124S08154 1991 23 SP EA LISA 1991-05-08 12:00:00 TS -11.0750 154.075 45 990 bom main 375 366 O_____O_O___O_ jtwc_sh SH211991 -11.1000 154.000 XX 45 -5 -11.0000 154.000 30 45 990 3.00000 215 3 6 -11.1000 154.400 40 990 -11.1000 153.900 TC 45 64 64 8 195
1991124S08154 1991 23 SP EA LISA 1991-05-08 15:00:00 TS -11.4742 153.983 main 374 374 P_____P_P___P_ SH211991 -11.4416 153.994 XX 47 -5 -11.4700 153.905 30 45 990 228 -11.5276 154.113 40 990 -11.4575 153.920 TC 47 8 188
1991124S08154 1991 23 SP EA LISA 1991-05-08 18:00:00 TS -11.8952 153.956 45 990 bom main 388 388 P_____O_O___O_ SH211991 -11.7806 154.025 XX 50 -5 -12.0000 153.900 30 45 990 3.00000 242 3 6 -12.0000 153.900 40 990 -11.8000 154.000 TC 50 64 64 9 177
1991124S08154 1991 23 SP EA LISA 1991-05-08 21:00:00 TS -12.3236 154.028 main 407 407 P_____P_P___P_ SH211991 -12.1044 154.094 XX 52 -5 -12.5450 153.977 30 45 990 255 -12.5375 153.947 40 990 -12.1075 154.093 TC 52 8 167
1991124S08154 1991 23 SP EA LISA 1991-05-09 00:00:00 TS -12.7000 154.150 45 990 bom main 448 438 O_____O_O___O_ jtwc_sh SH211991 -12.4000 154.200 XX 55 -5 -13.0000 154.100 30 45 990 3.00000 269 3 6 -13.0000 154.100 40 990 -12.4000 154.200 TC 55 64 64 7 161
1991124S08154 1991 23 SP EA LISA 1991-05-09 03:00:00 TS -12.9618 154.256 main 475 475 P_____P_P___P_ SH211991 -12.6573 154.340 XX 57 -5 -13.2450 154.200 30 47 987 242 -13.2450 154.200 45 987 -12.7000 154.285 TC 57 5 155
1991124S08154 1991 23 SP EA LISA 1991-05-09 06:00:00 TS -13.1750 154.375 50 984 bom main 497 497 I_____O_O___O_ jtwc_sh SH211991 -12.9000 154.500 XX 60 -5 -13.4000 154.300 30 50 984 3.50000 215 3 6 -13.4000 154.300 50 984 -13.0000 154.400 TC 60 69 69 5 152
1991124S08154 1991 23 SP EA LISA 1991-05-09 09:00:00 TS -13.3994 154.496 main 518 518 P_____P_P___P_ SH211991 -13.1350 154.643 XX 62 -5 -13.5850 154.378 30 50 983 215 -13.5775 154.378 50 983 -13.3000 154.585 TC 60 5 151
1991124S08154 1991 23 SP EA LISA 1991-05-09 12:00:00 TS -13.6500 154.650 50 983 bom main 549 541 O_____O_O___O_ jtwc_sh SH211991 -13.4000 154.800 XX 65 -5 -13.8000 154.500 30 50 983 3.50000 215 3 6 -13.8000 154.500 50 983 -13.6000 154.800 TC 60 69 69 7 148
1991124S08154 1991 23 SP EA LISA 1991-05-09 15:00:00 TS -13.9562 154.853 main 594 594 P_____P_P___P_ SH211991 -13.7275 154.993 XX 63 -5 -14.0700 154.713 30 50 982 215 -14.1275 154.720 52 982 -13.8999 154.985 TC 65 8 146
1991124S08154 1991 23 SP EA LISA 1991-05-09 18:00:00 TS -14.3000 155.100 50 982 bom main 632 632 I_____O_O___O_ jtwc_sh SH211991 -14.1000 155.200 XX 62 -5 -14.4000 155.000 30 50 982 3.50000 215 3 6 -14.5000 155.000 55 982 -14.2000 155.200 TC 70 69 69 9 145
1991124S08154 1991 23 SP EA LISA 1991-05-09 21:00:00 TS -14.6719 155.374 main 686 686 P_____P_P___P_ SH211991 -14.4998 155.355 XX 61 -5 -14.8151 155.357 30 55 980 242 -14.8800 155.300 55 980 -14.4925 155.485 TC 70 9 142
1991124S08154 1991 23 SP EA LISA 1991-05-10 00:00:00 TS -15.0250 155.675 60 978 bom main 732 732 O_____O_O___O_ jtwc_sh SH211991 -14.9000 155.600 XX 60 -5 -15.2000 155.700 30 60 978 4.00000 269 3 6 -15.2000 155.600 55 978 -14.8000 155.800 TC 70 84 84 9 138
1991124S08154 1991 23 SP EA LISA 1991-05-10 03:00:00 TS -15.3062 155.974 main 741 738 P_____P_P___P_ SH211991 -15.2729 156.100 XX 70 -5 -15.4298 155.885 30 60 976 282 -15.3648 155.828 57 976 -15.1574 156.085 TC 70 8 131
1991124S08154 1991 23 SP EA LISA 1991-05-10 06:00:00 TS -15.5500 156.300 60 975 bom main 742 746 O_____O_O___O_ jtwc_sh SH211991 -15.6000 156.600 XX 80 -5 -15.6000 156.100 30 60 975 4.00000 296 3 6 -15.5000 156.100 60 975 -15.5000 156.400 TC 70 84 84 8 127
1991124S08154 1991 23 SP EA LISA 1991-05-10 09:00:00 TS -15.7995 156.643 main 756 751 P_____P_P___P_ SH211991 -15.8682 156.813 XX 75 -5 -15.8149 156.490 30 60 975 255 -15.7424 156.497 60 975 -15.7724 156.770 TC 67 9 123
1991124S08154 1991 23 SP EA LISA 1991-05-10 12:00:00 TS -16.0250 157.050 60 975 bom main 753 751 O_____O_O___O_ jtwc_sh SH211991 -16.1000 157.000 XX 70 -5 -16.0000 157.000 30 60 975 4.00000 215 3 6 -16.0000 157.000 60 975 -16.0000 157.200 TC 65 84 84 10 114
1991124S08154 1991 23 SP EA LISA 1991-05-10 15:00:00 TS -16.2002 157.580 main 755 740 P_____P_P___P_ SH211991 -16.3304 157.448 XX 68 -5 -16.0777 157.600 30 60 975 215 -16.2001 157.593 60 975 -16.1924 157.678 TC 65 11 109
1991124S08154 1991 23 SP EA LISA 1991-05-10 18:00:00 TS -16.3878 158.159 60 975 bom main 737 695 P_____O_O___O_ SH211991 -16.5512 158.037 XX 67 -5 -16.2000 158.200 30 60 975 4.00000 215 3 6 -16.4000 158.200 60 975 -16.4000 158.200 TC 65 84 84 12 113
1991124S08154 1991 23 SP EA LISA 1991-05-10 21:00:00 TS -16.6564 158.705 main 688 632 P_____P_P___P_ SH211991 -16.7711 158.683 XX 66 -5 -16.5197 158.672 30 60 975 215 -16.6499 158.730 60 975 -16.6849 158.735 TC 62 12 119
1991124S08154 1991 23 SP EA LISA 1991-05-11 00:00:00 TS -16.9500 159.225 60 975 bom main 632 570 O_____O_O___O_ jtwc_sh SH211991 -17.0000 159.300 XX 65 -5 -16.9000 159.100 30 60 975 4.00000 215 3 6 -16.9000 159.200 60 975 -17.0000 159.300 TC 60 84 84 11 121
1991124S08154 1991 23 SP EA LISA 1991-05-11 03:00:00 TS -17.2232 159.701 main 570 507 P_____P_P___P_ SH211991 -17.2636 159.799 XX 62 -5 -17.2223 159.535 30 60 975 269 -17.0996 159.578 60 975 -17.3074 159.893 TC 57 11 119
1991124S08154 1991 23 SP MM LISA 1991-05-11 06:00:00 TS -17.4750 160.200 60 975 bom main 507 452 I_____O_O___O_ jtwc_sh SH211991 -17.5000 160.300 XX 60 -5 -17.5000 160.000 30 60 975 4.00000 323 3 6 -17.3000 160.000 60 975 -17.6000 160.500 TC 55 84 84 11 115
1991124S08154 1991 23 SP MM LISA 1991-05-11 09:00:00 TS -17.7081 160.773 main 444 390 P_____P_P___P_ SH211991 -17.6649 160.843 XX 57 -5 -17.7373 160.520 30 60 977 296 -17.5652 160.620 57 977 -17.8649 161.108 TC 52 12 111
1991124S08154 1991 23 SP MM LISA 1991-05-11 12:00:00 TS -17.9000 161.375 55 980 wellington main 383 337 O_____O_O___O_ jtwc_sh SH211991 -17.8000 161.400 XX 55 -5 -17.9000 161.100 30 60 980 4.00000 269 3 6 -17.8000 161.300 55 980 -18.1000 161.700 TC 50 84 84 12 106
1991124S08154 1991 23 SP MM LISA 1991-05-11 15:00:00 TS -18.0417 161.966 main 330 288 P_____P_P___P_ SH211991 -17.9499 161.958 XX 52 -5 -17.9648 161.728 30 55 985 269 -17.9224 161.923 52 982 -18.3298 162.258 TC 47 11 103
1991124S08154 1991 23 SP MM LISA 1991-05-11 18:00:00 TS -18.1500 162.550 50 985 wellington main 282 247 O_____O_O___O_ jtwc_sh SH211991 -18.1000 162.500 XX 50 -5 -18.0000 162.400 30 50 990 3.50000 269 3 6 -18.0000 162.500 50 985 -18.5000 162.800 TC 45 69 69 11 101
1991124S08154 1991 23 SP MM LISA 1991-05-11 21:00:00 TS -18.2516 163.105 main 237 218 P_____P_P___P_ SH211991 -18.2647 163.000 XX 47 -5 -18.0773 163.093 30 47 991 269 -18.0994 162.978 47 986 -18.5648 163.350 TC 42 11 101
1991124S08154 1991 23 SP MM LISA 1991-05-12 00:00:00 TS -18.3500 163.675 45 987 wellington main 216 201 O_____O_O___O_ jtwc_sh SH211991 -18.4000 163.500 XX 45 -5 -18.2000 163.800 30 45 992 3.00000 269 3 6 -18.2000 163.500 45 987 -18.6000 163.900 TC 40 64 64 11 100
1991124S08154 1991 23 SP MM LISA 1991-05-12 03:00:00 TS -18.4564 164.270 main 191 191 P_____P_P___P_ SH211991 -18.4724 164.043 XX 40 -5 -18.3768 164.463 30 42 993 269 -18.3076 164.212 42 988 -18.6688 164.361 TC 37 13 101
1991124S08154 1991 23 SP MM LISA 1991-05-12 06:00:00 TS -18.5800 164.973 40 990 wellington main 197 197 O_____O_O___O_ jtwc_sh SH211991 -18.5000 164.600 XX 35 -5 -18.6000 165.200 30 40 994 3.00000 269 3 6 -18.4000 165.000 40 990 -18.8000 165.000 TC 35 55 55 15 98
1991124S08154 1991 23 SP MM LISA 1991-05-12 09:00:00 TS -18.6701 165.813 main 224 224 P_____P_P___P_ SH211991 -18.5053 165.152 XX 32 -5 -18.8121 166.083 30 37 996 269 -18.3500 165.618 37 992 -18.9308 166.069 TC 32 18 101
1991124S08154 1991 23 SP MM LISA 1991-05-12 12:00:00 TS -18.9167 166.850 35 995 wellington main 267 265 O_____O_O___O_ jtwc_sh SH211991 -18.5000 165.700 XX 30 -5 -19.1000 167.100 30 35 998 3.00000 269 3 6 -18.5000 166.500 35 995 -19.3000 167.300 TC 30 49 49 25 111
1991124S08154 1991 23 SP MM LISA 1991-05-12 15:00:00 TS -19.5488 168.240 main 309 306 ______P_P___P_ SH211991 XX -5 -19.5141 168.221 30 35 1000 269 -19.0350 168.046 32 995 -20.0799 168.444 TC 30 31 121
1991124S08154 1991 23 SP MM LISA 1991-05-12 18:00:00 TS -20.4889 169.622 30 996 wellington main 329 329 ______O_O___O_ XX -5 -20.0000 169.400 30 35 1002 3.00000 269 3 6 -20.0000 169.800 30 996 -21.1000 169.500 TC 30 49 49 33 133
1991124S08154 1991 23 SP MM LISA 1991-05-12 21:00:00 TS -21.8150 170.793 main 394 394 ________P___P_ XX -5 30 -21.4773 171.358 30 996 -22.1528 170.227 TC 30 34 140
1991124S08154 1991 23 SP MM LISA 1991-05-13 00:00:00 TS -23.1000 171.950 30 997 wellington main 520 520 ________O___O_ -1 -23.0000 172.700 30 997 -23.2000 171.200 TC 30 33 134
1991124S08154 1991 23 SP MM LISA 1991-05-13 03:00:00 TS -24.0970 173.401 main 683 683 ________P___P_ -1 -24.0702 173.708 30 997 -24.1238 173.094 TC 27 31 124
1991124S08154 1991 23 SP MM LISA 1991-05-13 06:00:00 TS -24.8429 174.757 30 997 wellington main 792 792 ________O___O_ -1 -24.8000 174.500 30 997 -24.9000 175.100 TC 25 23 121
1991124S08154 1991 23 SP MM LISA 1991-05-13 09:00:00 TS -25.3059 175.587 main 817 814 ________P___P_ -1 -25.1909 175.128 30 997 -25.5360 176.506 TC 25 16 119
1991124S08154 1991 23 SP MM LISA 1991-05-13 12:00:00 TS -25.6200 176.300 30 997 wellington main 832 830 ________O___O_ -1 -25.5000 176.000 30 997 -26.1000 177.500 TC 25 20 113
1991124S08154 1991 23 SP MM LISA 1991-05-13 15:00:00 NR -26.0870 177.591 main 872 872 ________P_____ -1 -26.0870 177.591 30 996 TC 31 111
1991124S08154 1991 23 SP MM LISA 1991-05-13 18:00:00 NR -26.7000 179.500 30 995 wellington main 948 948 ________O_____ -1 -26.7000 179.500 30 995 35 108
1991124S08154 1991 23 SP MM LISA 1991-05-13 21:00:00 NR -27.1852 181.287 main 1044 1044 ________P_____ -1 -27.1852 -178.713 30 995 33 106
1991124S08154 1991 23 SP MM LISA 1991-05-14 00:00:00 NR -27.6000 183.100 30 995 wellington main 1153 1153 ________O_____ -1 -27.6000 -176.900 30 995 33 104
1991124S08154 1991 23 SP MM LISA 1991-05-14 03:00:00 NR -27.9687 184.907 main 1230 1230 ________P_____ -1 -27.9687 -175.093 32 993 33 102
1991124S08154 1991 23 SP MM LISA 1991-05-14 06:00:00 NR -28.3000 186.800 35 992 wellington main 1295 1295 ________O_____ -1 -28.3000 -173.200 35 992 36 101
1991124S08154 1991 23 SP MM LISA 1991-05-14 09:00:00 NR -28.6471 188.951 main 1399 1397 ________P_____ -1 -28.6471 -171.049 35 991 37 99
1991124S08154 1991 23 SP MM LISA 1991-05-14 12:00:00 NR -28.9000 191.000 35 991 wellington main 1509 1509 ________O_____ -1 -28.9000 -169.000 35 991 32 96
1991124S08154 1991 23 SP MM LISA 1991-05-14 15:00:00 NR -28.9899 192.592 main 1617 1617 ________P_____ -1 -28.9899 -167.408 37 990 26 92
1991124S08154 1991 23 SP MM LISA 1991-05-14 18:00:00 NR -29.0000 194.000 40 990 wellington main 1722 1722 ________O_____ -1 -29.0000 -166.000 40 990 24 87
1991124S08154 1991 23 SP MM LISA 1991-05-14 21:00:00 NR -28.8631 195.323 main 1829 1829 ________P_____ -1 -28.8631 -164.677 42 987 26 90
1991124S08154 1991 23 SP MM LISA 1991-05-15 00:00:00 NR -29.0000 197.000 45 985 wellington main 1945 1945 ________O_____ -1 -29.0000 -163.000 45 985 40 104
1991124S08154 1991 23 SP MM LISA 1991-05-15 03:00:00 NR -29.8402 199.756 main 2138 2138 ________P_____ -1 -29.8402 -160.244 50 980 51 111
1991124S08154 1991 23 SP MM LISA 1991-05-15 06:00:00 NR -30.8000 202.500 55 975 wellington main 2315 2315 ________O_____ -1 -30.8000 -157.500 55 975 40 112
1991124S08154 1991 23 SP MM LISA 1991-05-15 09:00:00 NR -31.3653 204.104 main 2425 2425 ________P_____ -1 -31.3653 -155.896 55 974 25 113
1991124S08154 1991 23 SP MM LISA 1991-05-15 12:00:00 NR -31.8000 205.200 55 974 wellington main 2503 2503 ________O_____ -1 -31.8000 -154.800 55 974 20 114
1991124S08154 1991 23 SP MM LISA 1991-05-15 15:00:00 NR -32.1792 206.223 main 2573 2573 ________P_____ -1 -32.1792 -153.777 55 973 20 113
1991124S08154 1991 23 SP MM LISA 1991-05-15 18:00:00 NR -32.6000 207.400 55 973 wellington main 2662 2662 ________O_____ -1 -32.6000 -152.600 55 973 28 112
1991124S08154 1991 23 SP MM LISA 1991-05-15 21:00:00 NR -33.2068 209.302 main 2806 2806 ________P_____ -1 -33.2068 -150.698 55 972 34 111
1991124S08154 1991 23 SP MM LISA 1991-05-16 00:00:00 NR -33.8000 211.200 55 972 wellington main 2951 2951 ________O_____ -1 -33.8000 -148.800 55 972 28 112
1991124S08154 1991 23 SP MM LISA 1991-05-16 03:00:00 NR -34.2330 212.411 main 3043 3043 ________P_____ -1 -34.2330 -147.589 55 972 19 115
1991124S08154 1991 23 SP MM LISA 1991-05-16 06:00:00 NR -34.6000 213.300 55 972 wellington main 3109 3109 ________O_____ -1 -34.6000 -146.700 55 972 16 116
1991124S08154 1991 23 SP MM LISA 1991-05-16 09:00:00 NR -34.9565 214.196 main 3175 3175 ________P_____ -1 -34.9565 -145.804 55 972 16 117
1991124S08154 1991 23 SP MM LISA 1991-05-16 12:00:00 NR -35.3000 215.000 55 972 wellington main 3236 3236 ________O_____ -1 -35.3000 -145.000 55 972 14 118
1991124S08154 1991 23 SP MM LISA 1991-05-16 15:00:00 NR -35.6267 215.766 main 3296 3293 ________P_____ -1 -35.6267 -144.234 55 972 14 120
1991124S08154 1991 23 SP MM LISA 1991-05-16 18:00:00 NR -36.0000 216.500 55 972 wellington main 3345 3345 ________O_____ -1 -36.0000 -143.500 55 972 15 125
1991124S08154 1991 23 SP MM LISA 1991-05-16 21:00:00 NR -36.4776 217.287 main 3401 3401 ________P_____ -1 -36.4776 -142.713 55 972 16 130
1991124S08154 1991 23 SP MM LISA 1991-05-17 00:00:00 NR -37.0000 218.000 55 972 wellington main 3448 3448 ________O_____ -1 -37.0000 -142.000 55 972 14 136
1991124S08154 1991 23 SP MM LISA 1991-05-17 03:00:00 NR -37.4992 218.539 main 3478 3478 ________P_____ -1 -37.4992 -141.461 55 972 13 142
1991124S08154 1991 23 SP MM LISA 1991-05-17 06:00:00 NR -38.0000 219.000 55 972 wellington main 3509 3509 ________O_____ -1 -38.0000 -141.000 55 972 12 142
1991124S08154 1991 23 SP MM LISA 1991-05-17 09:00:00 NR -38.4623 219.501 main 3540 3540 ________P_____ -1 -38.4623 -140.499 55 972 13 142
1991124S08154 1991 23 SP MM LISA 1991-05-17 12:00:00 NR -39.0000 220.000 55 972 wellington main 3571 3571 ________O_____ -1 -39.0000 -140.000 55 972 15 149
1991124S08154 1991 23 SP MM LISA 1991-05-17 15:00:00 NR -39.7118 220.464 main 3599 3597 ________P_____ -1 -39.7118 -139.536 55 972 17 153
1991124S08154 1991 23 SP MM LISA 1991-05-17 18:00:00 NR -40.5000 221.000 55 972 wellington main 3623 3618 ________O_____ -1 -40.5000 -139.000 55 972 18 148
1991124S08154 1991 23 SP MM LISA 1991-05-17 21:00:00 NR -41.2505 221.721 main 3607 3522 ________P_____ -1 -41.2505 -138.279 52 972 19 143
1991124S08154 1991 23 SP MM LISA 1991-05-18 00:00:00 NR -42.0000 222.500 50 973 wellington main 3522 3439 ________O_____ -1 -42.0000 -137.500 50 973 18 144
1991124S08154 1991 23 SP MM LISA 1991-05-18 03:00:00 NR -42.7302 223.150 main 3439 3356 ________P_____ -1 -42.7302 -136.850 48 973 17 148
1991124S08154 1991 23 SP MM LISA 1991-05-18 06:00:00 NR -43.4616 223.749 main 3345 3263 ________P_____ -1 -43.4616 -136.251 47 973 17 150
1991124S08154 1991 23 SP MM LISA 1991-05-18 09:00:00 NR -44.2124 224.348 main 3263 3169 ________P_____ -1 -44.2124 -135.652 46 973 18 150
1991124S08154 1991 23 SP MM LISA 1991-05-18 12:00:00 NR -45.0000 225.000 45 973 wellington main 3169 3075 ________O_____ -1 -45.0000 -135.000 45 973 19 149
1991124S08154 1991 23 SP MM LISA 1991-05-18 15:00:00 NR -45.8352 225.751 main 3074 2970 ________P_____ -1 -45.8352 -134.249 43 974 20 147
1991124S08154 1991 23 SP MM LISA 1991-05-18 18:00:00 NR -46.7074 226.597 main 2969 2864 ________P_____ -1 -46.7074 -133.403 42 976 21 146
1991124S08154 1991 23 SP MM LISA 1991-05-18 21:00:00 NR -47.6009 227.520 main 2864 2759 ________P_____ -1 -47.6009 -132.480 41 978 22 144
1991124S08154 1991 23 SP MM LISA 1991-05-19 00:00:00 NR -48.5000 228.500 40 980 wellington main 2759 ________O_____ -1 -48.5000 -131.500 40 980 22 144

Digital Typhoon Data and Search

About IBTrACS Database

This database is a web-friendly format of International Best Track Archive for Climate Stewardship (IBTrACS), a global best track data archive curated by NOAA dating back to 1842.

Updated: 2021-12-06